createdAt,value
2019-05-26T00:01:17.816Z,2.20
2019-05-26T00:03:50.013Z,2.83
2019-05-26T00:06:22.230Z,2.87
2019-05-26T00:08:54.424Z,3.03
2019-05-26T00:11:26.642Z,2.80
2019-05-26T00:14:00.468Z,2.90
2019-05-26T00:16:32.687Z,2.83
2019-05-26T00:19:04.954Z,2.60
2019-05-26T00:21:37.174Z,2.60
2019-05-26T00:24:09.369Z,2.63
2019-05-26T00:26:41.580Z,2.70
2019-05-26T00:29:13.918Z,2.77
2019-05-26T00:31:46.205Z,2.33
2019-05-26T00:34:18.472Z,2.13
2019-05-26T00:36:50.768Z,2.20
2019-05-26T00:39:22.966Z,3.03
2019-05-26T00:41:55.280Z,3.20
2019-05-26T00:44:27.486Z,3.60
2019-05-26T00:46:59.774Z,3.00
2019-05-26T00:49:31.982Z,2.57
2019-05-26T00:52:04.217Z,2.33
2019-05-26T00:54:36.847Z,2.60
2019-05-26T00:57:09.177Z,3.10
2019-05-26T00:59:41.363Z,3.20
2019-05-26T01:02:13.667Z,3.20
2019-05-26T01:04:45.866Z,3.40
2019-05-26T01:07:18.084Z,3.47
2019-05-26T01:09:50.219Z,3.03
2019-05-26T01:12:22.521Z,2.70
2019-05-26T01:14:55.788Z,2.57
2019-05-26T01:17:28.009Z,2.43
2019-05-26T01:20:00.133Z,2.53
2019-05-26T01:22:32.345Z,2.27
2019-05-26T01:25:04.825Z,2.53
2019-05-26T01:27:37.364Z,2.53
2019-05-26T01:30:09.635Z,2.30
2019-05-26T01:32:41.796Z,2.27
2019-05-26T01:35:14.049Z,1.90
2019-05-26T01:37:46.272Z,1.90
2019-05-26T01:40:23.414Z,2.50
2019-05-26T01:42:55.791Z,2.50
2019-05-26T01:45:27.994Z,2.90
2019-05-26T01:48:00.146Z,3.00
2019-05-26T01:50:32.411Z,3.50
2019-05-26T01:53:05.086Z,3.63
2019-05-26T01:55:37.286Z,3.40
2019-05-26T01:58:09.516Z,3.80
2019-05-26T02:00:42.195Z,2.83
2019-05-26T02:03:14.411Z,3.17
2019-05-26T02:05:46.605Z,2.77
2019-05-26T02:08:18.849Z,2.40
2019-05-26T02:10:52.048Z,2.50
2019-05-26T02:13:24.287Z,2.50
2019-05-26T02:15:56.482Z,2.70
2019-05-26T02:18:28.764Z,2.50
2019-05-26T02:21:01.161Z,2.70
2019-05-26T02:23:33.504Z,2.67
2019-05-26T02:26:05.784Z,2.67
2019-05-26T02:28:38.964Z,2.67
2019-05-26T02:31:11.138Z,2.40
2019-05-26T02:33:43.438Z,2.60
2019-05-26T02:36:15.706Z,2.17
2019-05-26T02:39:01.056Z,2.70
2019-05-26T02:41:21.874Z,2.57
2019-05-26T02:43:54.087Z,2.83
2019-05-26T02:46:26.287Z,4.37
2019-05-26T02:48:58.558Z,4.53
2019-05-26T02:51:30.755Z,4.60
2019-05-26T02:54:03.057Z,3.60
2019-05-26T02:56:35.316Z,2.63
2019-05-26T02:59:07.545Z,2.50
2019-05-26T03:01:58.375Z,2.43
2019-05-26T03:04:13.878Z,2.20
2019-05-26T03:06:46.333Z,2.23
2019-05-26T03:09:23.277Z,2.10
2019-05-26T03:11:52.802Z,2.40
2019-05-26T03:14:25.609Z,3.03
2019-05-26T03:16:58.033Z,2.30
2019-05-26T03:19:30.185Z,2.70
2019-05-26T03:22:02.450Z,2.90
2019-05-26T03:24:34.838Z,2.40
2019-05-26T03:27:07.042Z,2.50
2019-05-26T03:29:39.253Z,2.60
2019-05-26T03:32:11.446Z,2.30
2019-05-26T03:34:43.748Z,2.47
2019-05-26T03:37:15.922Z,2.00
2019-05-26T03:39:48.156Z,2.50
2019-05-26T03:42:20.256Z,2.10
2019-05-26T03:44:52.496Z,3.03
2019-05-26T03:47:24.694Z,2.70
2019-05-26T03:49:56.985Z,2.30
2019-05-26T03:52:29.268Z,2.17
2019-05-26T03:55:01.483Z,2.47
2019-05-26T03:57:33.671Z,2.27
2019-05-26T04:00:06.741Z,2.50
2019-05-26T04:02:38.977Z,2.70
2019-05-26T04:05:11.343Z,2.40
2019-05-26T04:07:43.591Z,2.67
2019-05-26T04:10:15.817Z,2.80
2019-05-26T04:12:48.032Z,2.67
2019-05-26T04:15:20.221Z,2.30
2019-05-26T04:17:52.337Z,2.77
2019-05-26T04:20:24.547Z,2.70
2019-05-26T04:22:56.825Z,2.50
2019-05-26T04:25:29.673Z,2.77
2019-05-26T04:28:01.980Z,2.87
2019-05-26T04:30:34.333Z,2.67
2019-05-26T04:33:06.538Z,2.80
2019-05-26T04:35:38.818Z,2.43
2019-05-26T04:38:11.087Z,2.37
2019-05-26T04:40:43.887Z,2.40
2019-05-26T04:43:16.343Z,3.07
2019-05-26T04:45:48.639Z,3.27
2019-05-26T04:48:20.909Z,3.50
2019-05-26T04:50:53.220Z,2.93
2019-05-26T04:53:25.404Z,3.03
2019-05-26T04:55:57.739Z,2.70
2019-05-26T04:58:30.013Z,2.60
2019-05-26T05:01:02.229Z,2.40
2019-05-26T05:03:34.433Z,2.70
2019-05-26T05:06:06.740Z,2.73
2019-05-26T05:08:38.946Z,2.90
2019-05-26T05:11:11.169Z,2.50
2019-05-26T05:13:43.445Z,2.30
2019-05-26T05:16:15.747Z,2.60
2019-05-26T05:18:48.172Z,2.93
2019-05-26T05:21:20.384Z,2.80
2019-05-26T05:23:52.733Z,3.30
2019-05-26T05:26:25.041Z,3.00
2019-05-26T05:28:57.296Z,3.40
2019-05-26T05:31:29.593Z,2.87
2019-05-26T05:34:01.846Z,3.10
2019-05-26T05:36:34.624Z,3.20
2019-05-26T05:39:08.825Z,2.70
2019-05-26T05:41:41.154Z,2.30
2019-05-26T05:44:13.428Z,2.77
2019-05-26T05:46:45.741Z,3.00
2019-05-26T05:49:18.012Z,2.60
2019-05-26T05:51:50.241Z,3.80
2019-05-26T05:54:23.401Z,2.80
2019-05-26T05:56:55.940Z,3.60
2019-05-26T05:59:28.129Z,3.57
2019-05-26T06:02:00.360Z,3.37
2019-05-26T06:04:32.576Z,3.57
2019-05-26T06:07:04.812Z,3.50
2019-05-26T06:09:36.986Z,3.57
2019-05-26T06:12:09.291Z,3.83
2019-05-26T06:14:41.823Z,3.97
2019-05-26T06:17:14.045Z,4.40
2019-05-26T06:19:46.330Z,4.27
2019-05-26T06:22:18.547Z,4.77
2019-05-26T06:24:50.817Z,4.63
2019-05-26T06:27:23.116Z,5.40
2019-05-26T06:29:58.893Z,5.43
2019-05-26T06:32:29.246Z,5.60
2019-05-26T06:35:01.519Z,5.77
2019-05-26T06:37:33.759Z,5.90
2019-05-26T06:40:07.552Z,5.40
2019-05-26T06:42:39.865Z,5.60
2019-05-26T06:45:12.151Z,5.50
2019-05-26T06:47:44.529Z,6.37
2019-05-26T06:50:16.915Z,6.10
2019-05-26T06:52:49.124Z,6.07
2019-05-26T06:55:21.326Z,5.53
2019-05-26T06:57:53.736Z,6.03
2019-05-26T07:00:25.987Z,4.67
2019-05-26T07:02:58.278Z,5.37
2019-05-26T07:05:30.481Z,5.40
2019-05-26T07:08:02.926Z,5.87
2019-05-26T07:10:35.134Z,5.77
2019-05-26T07:13:07.429Z,5.73
2019-05-26T07:15:39.656Z,5.90
2019-05-26T07:18:11.868Z,5.50
2019-05-26T07:20:44.123Z,6.10
2019-05-26T07:23:16.351Z,6.20
2019-05-26T07:25:48.553Z,5.83
2019-05-26T07:28:20.787Z,6.43
2019-05-26T07:30:53.062Z,6.33
2019-05-26T07:33:25.313Z,6.60
2019-05-26T07:35:57.579Z,5.93
2019-05-26T07:38:29.804Z,6.37
2019-05-26T07:41:02.130Z,6.33
2019-05-26T07:43:34.367Z,6.03
2019-05-26T07:46:06.735Z,5.90
2019-05-26T07:48:38.948Z,5.00
2019-05-26T07:51:11.147Z,5.60
2019-05-26T07:53:43.450Z,5.57
2019-05-26T07:56:15.719Z,5.47
2019-05-26T07:58:48.264Z,5.57
2019-05-26T08:01:24.199Z,5.43
2019-05-26T08:03:54.615Z,5.43
2019-05-26T08:06:26.952Z,5.73
2019-05-26T08:08:59.259Z,5.37
2019-05-26T08:11:31.534Z,5.43
2019-05-26T08:14:03.858Z,5.37
2019-05-26T08:16:36.113Z,5.20
2019-05-26T08:19:08.331Z,5.17
2019-05-26T08:21:40.521Z,4.13
2019-05-26T08:24:12.741Z,4.60
2019-05-26T08:26:45.007Z,4.70
2019-05-26T08:29:17.378Z,4.50
2019-05-26T08:31:49.606Z,4.50
2019-05-26T08:34:22.009Z,4.67
2019-05-26T08:36:54.273Z,4.40
2019-05-26T08:39:28.216Z,4.27
2019-05-26T08:42:00.432Z,4.03
2019-05-26T08:44:32.675Z,4.63
2019-05-26T08:47:04.871Z,3.90
2019-05-26T08:49:37.234Z,4.40
2019-05-26T08:52:09.446Z,4.33
2019-05-26T08:54:42.636Z,4.10
2019-05-26T08:57:14.919Z,4.90
2019-05-26T08:59:47.136Z,5.10
2019-05-26T09:02:19.335Z,4.93
2019-05-26T09:04:51.526Z,4.90
2019-05-26T09:07:23.709Z,5.30
2019-05-26T09:09:55.926Z,6.10
2019-05-26T09:12:29.100Z,6.30
2019-05-26T09:15:01.484Z,6.03
2019-05-26T09:17:33.827Z,5.67
2019-05-26T09:20:11.207Z,6.07
2019-05-26T09:22:41.913Z,6.73
2019-05-26T09:25:14.186Z,6.60
2019-05-26T09:27:46.317Z,6.80
2019-05-26T09:30:18.689Z,5.93
2019-05-26T09:32:50.981Z,6.57
2019-05-26T09:35:23.639Z,6.47
2019-05-26T09:37:55.977Z,6.40
2019-05-26T09:40:28.206Z,6.57
2019-05-26T09:43:14.783Z,6.60
2019-05-26T09:45:34.461Z,6.50
2019-05-26T09:48:06.739Z,6.90
2019-05-26T09:50:39.920Z,8.60
2019-05-26T09:53:12.192Z,8.30
2019-05-26T09:55:44.409Z,8.27
2019-05-26T09:58:16.604Z,7.70
2019-05-26T10:00:48.831Z,9.90
2019-05-26T10:03:21.032Z,9.43
2019-05-26T10:05:53.329Z,8.73
2019-05-26T10:08:25.541Z,9.87
2019-05-26T10:10:57.812Z,9.73
2019-05-26T10:13:32.016Z,9.80
2019-05-26T10:16:04.109Z,10.50
2019-05-26T10:18:36.417Z,10.13
2019-05-26T10:21:08.652Z,10.40
2019-05-26T10:23:40.866Z,10.10
2019-05-26T10:26:13.258Z,9.30
2019-05-26T10:28:45.543Z,8.83
2019-05-26T10:31:17.844Z,9.60
2019-05-26T10:33:50.248Z,9.60
2019-05-26T10:36:22.629Z,10.20
2019-05-26T10:38:54.840Z,9.03
2019-05-26T10:41:27.081Z,7.87
2019-05-26T10:43:59.205Z,8.10
2019-05-26T10:46:31.445Z,7.87
2019-05-26T10:49:03.667Z,7.47
2019-05-26T10:51:35.963Z,7.03
2019-05-26T10:54:08.243Z,6.70
2019-05-26T10:56:41.578Z,6.90
2019-05-26T10:59:13.852Z,7.87
2019-05-26T11:02:04.443Z,6.30
2019-05-26T11:04:38.709Z,6.10
2019-05-26T11:07:11.771Z,5.97
2019-05-26T11:09:44.638Z,5.13
2019-05-26T11:12:17.599Z,5.30
2019-05-26T11:14:50.511Z,5.10
2019-05-26T11:17:23.441Z,5.30
2019-05-26T11:19:56.478Z,4.37
2019-05-26T11:22:29.432Z,4.67
2019-05-26T11:25:02.438Z,4.63
2019-05-26T11:27:35.634Z,4.80
2019-05-26T11:30:09.815Z,4.83
2019-05-26T11:32:43.022Z,4.73
2019-05-26T11:35:16.037Z,4.53
2019-05-26T11:37:49.209Z,4.93
2019-05-26T11:40:22.479Z,5.17
2019-05-26T11:42:55.669Z,4.57
2019-05-26T11:45:28.982Z,4.00
2019-05-26T11:48:02.146Z,4.20
2019-05-26T11:50:35.280Z,4.10
2019-05-26T11:53:08.427Z,4.50
2019-05-26T11:55:41.518Z,4.40
2019-05-26T11:58:14.590Z,4.53
2019-05-26T12:00:47.626Z,4.50
2019-05-26T12:03:20.834Z,3.90
2019-05-26T12:05:54.034Z,3.60
2019-05-26T12:08:26.945Z,4.10
2019-05-26T12:11:00.004Z,3.20
2019-05-26T12:13:36.008Z,3.67
2019-05-26T12:16:07.648Z,3.80
2019-05-26T12:18:40.715Z,3.57
2019-05-26T12:21:13.734Z,3.50
2019-05-26T12:23:46.977Z,3.90
2019-05-26T12:26:20.294Z,3.60
2019-05-26T12:28:53.557Z,3.27
2019-05-26T12:31:26.749Z,3.17
2019-05-26T12:33:59.961Z,3.03
2019-05-26T12:36:33.199Z,2.90
2019-05-26T12:39:07.757Z,3.27
2019-05-26T12:41:40.001Z,2.93
2019-05-26T12:44:14.302Z,3.17
2019-05-26T12:46:46.656Z,2.90
2019-05-26T12:49:20.962Z,2.90
2019-05-26T12:51:56.199Z,3.00
2019-05-26T12:54:30.179Z,2.90
2019-05-26T12:57:25.202Z,3.13
2019-05-26T12:59:57.580Z,2.80
2019-05-26T13:02:35.782Z,2.93
2019-05-26T13:05:14.183Z,2.63
2019-05-26T13:07:48.495Z,2.80
2019-05-26T13:10:31.839Z,2.90
2019-05-26T13:13:04.264Z,2.50
2019-05-26T13:16:09.333Z,2.37
2019-05-26T13:18:45.997Z,2.70
2019-05-26T13:21:36.548Z,2.83
2019-05-26T13:24:21.177Z,2.50
2019-05-26T13:26:57.865Z,2.63
2019-05-26T13:29:46.733Z,2.60
2019-05-26T13:32:22.370Z,2.37
2019-05-26T13:35:05.487Z,2.10
2019-05-26T13:37:37.703Z,2.70
2019-05-26T13:43:45.717Z,2.30
2019-05-26T13:46:24.977Z,2.30
2019-05-26T13:49:17.239Z,2.10
2019-05-26T13:51:50.447Z,2.03
2019-05-26T13:54:22.918Z,1.90
2019-05-26T13:56:55.347Z,2.37
2019-05-26T13:59:27.713Z,2.13
2019-05-26T14:02:02.080Z,2.30
2019-05-26T14:04:34.274Z,1.93
2019-05-26T14:07:06.609Z,2.00
2019-05-26T14:09:38.823Z,2.00
2019-05-26T14:12:12.706Z,1.80
2019-05-26T14:14:45.049Z,2.10
2019-05-26T14:17:17.290Z,1.80
2019-05-26T14:19:49.409Z,1.40
2019-05-26T14:22:23.181Z,1.60
2019-05-26T14:24:55.380Z,1.43
2019-05-26T14:27:27.604Z,1.60
2019-05-26T14:29:59.793Z,1.30
2019-05-26T14:32:32.002Z,1.50
2019-05-26T14:35:04.527Z,1.47
2019-05-26T14:37:36.760Z,1.27
2019-05-26T14:40:09.406Z,1.37
2019-05-26T14:42:44.902Z,1.57
2019-05-26T14:45:17.305Z,1.40
2019-05-26T14:47:49.646Z,1.50
2019-05-26T14:50:21.991Z,1.30
2019-05-26T14:52:54.216Z,1.30
2019-05-26T14:55:26.492Z,1.27
2019-05-26T14:58:14.460Z,1.10
2019-05-26T15:00:32.810Z,1.13
2019-05-26T15:03:05.229Z,1.30
2019-05-26T15:05:37.440Z,1.20
2019-05-26T15:08:09.890Z,1.30
2019-05-26T15:10:42.195Z,1.30
2019-05-26T15:13:14.418Z,1.40
2019-05-26T15:15:47.582Z,1.43
2019-05-26T15:18:19.876Z,1.10
2019-05-26T15:20:55.388Z,1.57
2019-05-26T15:23:26.150Z,1.10
2019-05-26T15:25:58.359Z,1.30
2019-05-26T15:28:30.771Z,1.40
2019-05-26T15:31:03.124Z,1.27
2019-05-26T15:33:35.621Z,1.30
2019-05-26T15:36:07.888Z,1.43
2019-05-26T15:38:43.233Z,1.20
2019-05-26T15:41:15.828Z,1.40
2019-05-26T15:43:48.794Z,1.40
2019-05-26T15:46:25.326Z,1.33
2019-05-26T15:48:56.263Z,1.20
2019-05-26T15:51:28.757Z,1.40
2019-05-26T15:54:01.100Z,1.20
2019-05-26T15:56:33.227Z,1.30
2019-05-26T15:59:05.455Z,1.50
2019-05-26T16:01:37.762Z,1.03
2019-05-26T16:04:10.579Z,1.10
2019-05-26T16:06:43.492Z,1.30
2019-05-26T16:09:16.471Z,1.30
2019-05-26T16:11:49.294Z,1.33
2019-05-26T16:14:22.066Z,1.17
2019-05-26T16:16:54.938Z,1.33
2019-05-26T16:19:27.809Z,1.40
2019-05-26T16:22:00.729Z,1.23
2019-05-26T16:24:33.647Z,1.30
2019-05-26T16:27:18.652Z,1.60
2019-05-26T16:29:40.600Z,1.40
2019-05-26T16:32:13.843Z,1.10
2019-05-26T16:34:46.108Z,1.20
2019-05-26T16:37:18.705Z,1.60
2019-05-26T16:39:50.932Z,1.60
2019-05-26T16:42:23.222Z,1.37
2019-05-26T16:44:55.450Z,1.50
2019-05-26T16:47:28.312Z,1.43
2019-05-26T16:50:01.063Z,1.60
2019-05-26T16:52:33.918Z,1.50
2019-05-26T16:55:06.512Z,1.30
2019-05-26T16:57:38.967Z,1.40
2019-05-26T17:00:11.626Z,1.27
2019-05-26T17:02:43.836Z,1.50
2019-05-26T17:05:16.204Z,1.50
2019-05-26T17:07:50.516Z,1.40
2019-05-26T17:10:22.627Z,1.70
2019-05-26T17:12:54.910Z,2.70
2019-05-26T17:15:27.154Z,1.67
2019-05-26T17:17:59.534Z,1.50
2019-05-26T17:20:31.774Z,1.30
2019-05-26T17:23:04.126Z,1.27
2019-05-26T17:25:39.885Z,1.33
2019-05-26T17:28:12.150Z,1.30
2019-05-26T17:30:44.489Z,1.57
2019-05-26T17:33:16.693Z,1.07
2019-05-26T17:35:48.936Z,1.23
2019-05-26T17:38:21.795Z,1.10
2019-05-26T17:40:54.744Z,0.90
2019-05-26T17:43:27.724Z,1.30
2019-05-26T17:46:00.602Z,0.93
2019-05-26T17:48:33.768Z,1.23
2019-05-26T17:51:06.632Z,1.17
2019-05-26T17:53:39.324Z,1.03
2019-05-26T17:56:11.614Z,1.27
2019-05-26T17:58:43.890Z,1.20
2019-05-26T18:01:17.068Z,1.37
2019-05-26T18:04:33.062Z,1.20
2019-05-26T18:13:30.816Z,1.20
2019-05-26T18:16:21.728Z,0.90
2019-05-26T18:19:08.592Z,1.23
2019-05-26T18:21:50.269Z,1.13
2019-05-26T18:40:13.198Z,1.17
2019-05-26T18:42:50.158Z,1.03
2019-05-26T18:45:22.682Z,1.10
2019-05-26T18:48:02.972Z,0.90
2019-05-26T18:50:30.763Z,1.20
2019-05-26T18:53:03.530Z,1.30
2019-05-26T18:55:36.176Z,1.30
2019-05-26T18:58:08.866Z,1.33
2019-05-26T19:00:41.421Z,0.90
2019-05-26T19:03:14.141Z,1.33
2019-05-26T19:05:46.805Z,1.10
2019-05-26T19:08:19.373Z,1.10
2019-05-26T19:10:51.991Z,1.10
2019-05-26T19:13:24.655Z,1.10
2019-05-26T19:15:58.833Z,0.97
2019-05-26T19:18:31.806Z,0.97
2019-05-26T19:21:04.382Z,1.20
2019-05-26T19:23:37.007Z,1.00
2019-05-26T19:26:09.519Z,0.90
2019-05-26T19:28:42.211Z,1.17
2019-05-26T19:31:14.789Z,0.90
2019-05-26T19:33:47.493Z,1.10
2019-05-26T19:36:20.101Z,1.23
2019-05-26T19:38:52.805Z,1.00
2019-05-26T19:41:25.418Z,1.07
2019-05-26T19:43:58.419Z,1.20
2019-05-26T19:46:31.193Z,1.50
2019-05-26T19:49:03.857Z,1.30
2019-05-26T19:51:36.508Z,1.50
2019-05-26T19:54:09.251Z,1.50
2019-05-26T19:56:42.029Z,1.33
2019-05-26T19:59:14.837Z,1.50
2019-05-26T20:01:47.462Z,1.20
2019-05-26T20:04:20.137Z,1.20
2019-05-26T20:06:52.822Z,1.20
2019-05-26T20:09:25.769Z,1.10
2019-05-26T20:11:58.282Z,1.17
2019-05-26T20:14:30.917Z,1.33
2019-05-26T20:17:03.901Z,1.70
2019-05-26T20:19:41.605Z,1.00
2019-05-26T20:22:26.500Z,1.20
2019-05-26T20:25:08.158Z,1.20
2019-05-26T20:27:45.554Z,1.40
2019-05-26T20:30:23.085Z,1.20
2019-05-26T20:32:58.963Z,1.30
2019-05-26T20:35:38.208Z,1.20
2019-05-26T20:38:13.530Z,1.33
2019-05-26T20:41:01.408Z,1.20
2019-05-26T20:44:03.144Z,1.40
2019-05-26T20:46:40.490Z,1.40
2019-05-26T20:49:23.116Z,1.53
2019-05-26T20:52:48.992Z,1.77
2019-05-26T20:55:40.524Z,1.40
2019-05-26T20:58:32.339Z,1.50
2019-05-26T21:01:28.431Z,1.50
2019-05-26T21:05:19.648Z,1.30
2019-05-26T21:08:08.062Z,1.43
2019-05-26T21:10:47.147Z,1.53
2019-05-26T21:13:34.853Z,1.30
2019-05-26T21:16:14.571Z,1.50
2019-05-26T21:19:02.544Z,1.57
2019-05-26T21:21:47.358Z,1.33
2019-05-26T21:24:26.989Z,1.40
2019-05-26T21:27:08.798Z,1.23
2019-05-26T21:33:54.835Z,1.57
2019-05-26T21:36:59.491Z,1.30
2019-05-26T21:40:26.008Z,1.40
2019-05-26T21:43:14.749Z,1.50
2019-05-26T21:45:54.632Z,1.40
2019-05-26T21:53:43.642Z,1.40
2019-05-26T21:56:47.512Z,1.53
2019-05-26T21:59:55.798Z,1.20
2019-05-26T22:03:04.593Z,1.30
2019-05-26T22:05:51.592Z,1.13
2019-05-26T22:08:50.621Z,1.20
2019-05-26T22:11:32.814Z,1.03
2019-05-26T22:14:19.527Z,1.27
2019-05-26T22:17:06.948Z,1.20
2019-05-26T22:20:03.341Z,1.37
2019-05-26T22:22:55.243Z,1.20
2019-05-26T22:26:11.634Z,1.07
2019-05-26T22:28:48.863Z,1.23
2019-05-26T22:31:46.376Z,1.20
2019-05-26T22:34:36.473Z,1.10
2019-05-26T22:37:50.501Z,1.10
2019-05-26T22:41:10.156Z,1.30
2019-05-26T22:46:50.224Z,1.00
2019-05-26T22:49:31.941Z,1.23
2019-05-26T22:53:06.985Z,1.40
2019-05-26T22:56:00.825Z,1.03
2019-05-26T22:58:47.956Z,0.87
2019-05-26T23:01:40.138Z,1.73
2019-05-26T23:04:21.421Z,1.20
2019-05-26T23:13:19.717Z,1.17
2019-05-26T23:16:27.052Z,1.00
2019-05-26T23:19:19.296Z,1.20
2019-05-26T23:21:52.546Z,1.33
2019-05-26T23:24:31.169Z,1.20
2019-05-26T23:27:13.930Z,1.40
2019-05-26T23:29:51.393Z,1.10
2019-05-26T23:32:28.082Z,1.33
2019-05-26T23:35:06.607Z,1.47
2019-05-26T23:37:48.080Z,1.27
2019-05-26T23:40:27.845Z,1.43
2019-05-26T23:43:04.753Z,1.27
2019-05-26T23:45:45.151Z,1.20
2019-05-26T23:48:29.640Z,1.10
2019-05-26T23:51:08.956Z,1.40
2019-05-26T23:53:48.709Z,1.13
2019-05-26T23:56:25.066Z,1.10
2019-05-26T23:59:02.005Z,1.23
